createdAt,value
2018-05-03T00:00:36.517Z,0
2018-05-03T00:01:46.746Z,0
2018-05-03T00:02:56.883Z,0
2018-05-03T00:04:07.145Z,0
2018-05-03T00:05:17.486Z,0
2018-05-03T00:06:27.634Z,0
2018-05-03T00:07:37.968Z,0
2018-05-03T00:08:48.094Z,0
2018-05-03T00:09:58.236Z,0
2018-05-03T00:11:08.495Z,0
2018-05-03T00:12:18.631Z,0
2018-05-03T00:13:28.780Z,0
2018-05-03T00:14:38.914Z,0
2018-05-03T00:15:49.067Z,0
2018-05-03T00:16:58.606Z,0
2018-05-03T00:18:08.786Z,0
2018-05-03T00:19:18.790Z,0
2018-05-03T00:20:28.932Z,0
2018-05-03T00:21:39.055Z,0
2018-05-03T00:22:49.178Z,0
2018-05-03T00:23:59.403Z,0
2018-05-03T00:25:09.530Z,0
2018-05-03T00:26:19.667Z,0
2018-05-03T00:27:29.809Z,0
2018-05-03T00:28:40.009Z,0
2018-05-03T00:29:50.163Z,0
2018-05-03T00:31:00.309Z,0
2018-05-03T00:32:10.541Z,0
2018-05-03T00:33:20.410Z,0
2018-05-03T00:34:30.545Z,0
2018-05-03T00:35:40.402Z,0
2018-05-03T00:36:50.296Z,0
2018-05-03T00:38:00.488Z,0
2018-05-03T00:39:10.632Z,0
2018-05-03T00:40:20.774Z,0
2018-05-03T00:41:30.915Z,0
2018-05-03T00:42:40.795Z,0
2018-05-03T00:43:50.842Z,0
2018-05-03T00:45:00.739Z,0
2018-05-03T00:46:10.892Z,0
2018-05-03T00:47:21.113Z,0
2018-05-03T00:48:31.246Z,0
2018-05-03T00:49:41.413Z,0
2018-05-03T00:50:51.562Z,0
2018-05-03T00:52:01.091Z,0
2018-05-03T00:53:11.202Z,0
2018-05-03T00:54:21.088Z,0
2018-05-03T00:55:31.231Z,0
2018-05-03T00:56:41.401Z,0
2018-05-03T00:57:51.527Z,0
2018-05-03T00:59:01.699Z,0
2018-05-03T01:00:11.595Z,0
2018-05-03T01:01:21.778Z,0
2018-05-03T01:02:31.892Z,0
2018-05-03T01:03:42.124Z,0
2018-05-03T01:04:52.296Z,0
2018-05-03T01:06:02.408Z,0
2018-05-03T01:07:12.567Z,0
2018-05-03T01:08:22.697Z,0
2018-05-03T01:09:32.823Z,0
2018-05-03T01:10:42.982Z,0
2018-05-03T01:11:53.239Z,0
2018-05-03T01:13:03.453Z,0
2018-05-03T01:14:13.590Z,0
2018-05-03T01:15:23.789Z,0
2018-05-03T01:16:33.918Z,0
2018-05-03T01:17:44.063Z,0
2018-05-03T01:18:54.186Z,0
2018-05-03T01:20:04.328Z,0
2018-05-03T01:21:14.512Z,0
2018-05-03T01:22:24.652Z,0
2018-05-03T01:23:34.788Z,0
2018-05-03T01:24:44.990Z,0
2018-05-03T01:25:55.119Z,0
2018-05-03T01:27:05.315Z,0
2018-05-03T01:28:15.436Z,0
2018-05-03T01:29:25.612Z,0
2018-05-03T01:30:35.671Z,0
2018-05-03T01:31:45.529Z,0
2018-05-03T01:32:55.417Z,0
2018-05-03T01:34:05.378Z,0
2018-05-03T01:35:15.513Z,0
2018-05-03T01:36:25.635Z,0
2018-05-03T01:37:35.781Z,0
2018-05-03T01:38:45.912Z,0
2018-05-03T01:39:56.088Z,0
2018-05-03T01:41:06.304Z,0
2018-05-03T01:42:16.491Z,0
2018-05-03T01:43:26.371Z,0
2018-05-03T01:44:36.606Z,0
2018-05-03T01:45:46.749Z,0
2018-05-03T01:46:56.949Z,0
2018-05-03T01:48:07.095Z,0
2018-05-03T01:49:17.241Z,0
2018-05-03T01:50:27.358Z,0
2018-05-03T01:51:37.241Z,0
2018-05-03T01:52:47.418Z,0
2018-05-03T01:53:57.288Z,0
2018-05-03T01:55:07.580Z,0
2018-05-03T01:56:17.719Z,0
2018-05-03T01:57:27.989Z,0
2018-05-03T01:58:38.248Z,0
2018-05-03T01:59:48.477Z,0
2018-05-03T02:00:58.645Z,0
2018-05-03T02:02:08.797Z,0
2018-05-03T02:03:18.998Z,0
2018-05-03T02:04:29.188Z,0
2018-05-03T02:05:39.327Z,0
2018-05-03T02:06:49.228Z,0
2018-05-03T02:07:59.457Z,0
2018-05-03T02:09:09.689Z,0
2018-05-03T02:10:19.561Z,0
2018-05-03T02:11:29.706Z,0
2018-05-03T02:12:39.936Z,0
2018-05-03T02:13:50.103Z,0
2018-05-03T02:15:00.384Z,0
2018-05-03T02:16:10.313Z,0
2018-05-03T02:17:20.462Z,0
2018-05-03T02:18:30.655Z,0
2018-05-03T02:19:40.266Z,0
2018-05-03T02:20:50.467Z,0
2018-05-03T02:22:00.697Z,0
2018-05-03T02:23:10.888Z,0
2018-05-03T02:24:21.113Z,0
2018-05-03T02:25:31.267Z,0
2018-05-03T02:26:41.155Z,0
2018-05-03T02:27:51.025Z,0
2018-05-03T02:29:01.203Z,0
2018-05-03T02:30:11.376Z,0
2018-05-03T02:31:21.583Z,0
2018-05-03T02:32:31.475Z,0
2018-05-03T02:33:41.590Z,0
2018-05-03T02:34:51.715Z,0
2018-05-03T02:36:01.873Z,0
2018-05-03T02:37:12.022Z,0
2018-05-03T02:38:22.198Z,0
2018-05-03T02:39:32.332Z,0
2018-05-03T02:40:42.459Z,0
2018-05-03T02:41:52.591Z,0
2018-05-03T02:43:02.724Z,0
2018-05-03T02:44:12.964Z,0
2018-05-03T02:45:23.195Z,0
2018-05-03T02:46:33.431Z,0
2018-05-03T02:47:43.557Z,0
2018-05-03T02:48:53.782Z,0
2018-05-03T02:50:03.567Z,0
2018-05-03T02:51:13.716Z,0
2018-05-03T02:52:23.919Z,0
2018-05-03T02:53:34.039Z,0
2018-05-03T02:54:44.008Z,0
2018-05-03T02:55:54.252Z,0
2018-05-03T02:57:04.520Z,0
2018-05-03T02:58:14.665Z,0
2018-05-03T02:59:24.827Z,0
2018-05-03T03:00:34.696Z,0
2018-05-03T03:01:44.894Z,0
2018-05-03T03:02:55.059Z,0
2018-05-03T03:04:05.217Z,0
2018-05-03T03:05:15.133Z,0
2018-05-03T03:06:25.274Z,0
2018-05-03T03:07:35.443Z,0
2018-05-03T03:08:45.631Z,0
2018-05-03T03:09:55.865Z,0
2018-05-03T03:11:06.157Z,4
2018-05-03T03:12:16.355Z,4
2018-05-03T03:13:26.277Z,0
2018-05-03T03:14:36.183Z,4
2018-05-03T03:15:46.320Z,4
2018-05-03T03:16:56.261Z,4
2018-05-03T03:18:06.518Z,4
2018-05-03T03:19:16.670Z,4
2018-05-03T03:20:26.615Z,4
2018-05-03T03:21:36.775Z,12
2018-05-03T03:22:46.922Z,12
2018-05-03T03:23:57.195Z,16
2018-05-03T03:25:07.379Z,16
2018-05-03T03:26:17.138Z,20
2018-05-03T03:27:27.004Z,16
2018-05-03T03:28:36.868Z,20
2018-05-03T03:29:46.986Z,28
2018-05-03T03:30:56.948Z,28
2018-05-03T03:32:06.856Z,32
2018-05-03T03:33:17.030Z,36
2018-05-03T03:34:27.201Z,40
2018-05-03T03:35:37.089Z,44
2018-05-03T03:36:47.210Z,52
2018-05-03T03:37:57.356Z,56
2018-05-03T03:39:07.561Z,60
2018-05-03T03:40:17.717Z,68
2018-05-03T03:41:27.577Z,76
2018-05-03T03:42:37.728Z,88
2018-05-03T03:43:47.866Z,100
2018-05-03T03:44:58.150Z,116
2018-05-03T03:46:08.030Z,136
2018-05-03T03:47:18.154Z,148
2018-05-03T03:48:27.957Z,156
2018-05-03T03:49:37.638Z,172
2018-05-03T03:50:47.826Z,188
2018-05-03T03:51:58.013Z,212
2018-05-03T03:53:07.632Z,240
2018-05-03T03:54:17.618Z,268
2018-05-03T03:55:27.818Z,296
2018-05-03T03:56:38.100Z,320
2018-05-03T03:57:48.236Z,352
2018-05-03T03:58:58.182Z,376
2018-05-03T04:00:07.873Z,408
2018-05-03T04:01:17.805Z,440
2018-05-03T04:02:27.943Z,476
2018-05-03T04:03:38.086Z,504
2018-05-03T04:04:48.212Z,540
2018-05-03T04:05:58.356Z,568
2018-05-03T04:07:08.500Z,592
2018-05-03T04:08:18.740Z,624
2018-05-03T04:09:28.964Z,648
2018-05-03T04:10:39.135Z,660
2018-05-03T04:11:49.349Z,680
2018-05-03T04:12:59.635Z,704
2018-05-03T04:14:10.765Z,704
2018-05-03T04:15:21.024Z,696
2018-05-03T04:16:31.299Z,692
2018-05-03T04:17:40.899Z,704
2018-05-03T04:18:51.107Z,696
2018-05-03T04:20:01.300Z,684
2018-05-03T04:21:11.479Z,684
2018-05-03T04:22:21.893Z,684
2018-05-03T04:23:32.350Z,656
2018-05-03T04:24:42.491Z,656
2018-05-03T04:25:52.612Z,632
2018-05-03T04:27:02.758Z,596
2018-05-03T04:28:12.903Z,596
2018-05-03T04:29:23.150Z,580
2018-05-03T04:30:33.390Z,592
2018-05-03T04:31:43.554Z,608
2018-05-03T04:32:53.436Z,660
2018-05-03T04:34:03.633Z,708
2018-05-03T04:35:13.763Z,744
2018-05-03T04:36:23.924Z,792
2018-05-03T04:37:34.273Z,860
2018-05-03T04:38:44.434Z,848
2018-05-03T04:39:54.578Z,760
2018-05-03T04:41:05.743Z,772
2018-05-03T04:42:15.893Z,864
2018-05-03T04:43:26.083Z,1000
2018-05-03T04:44:36.207Z,1148
2018-05-03T04:45:46.332Z,1268
2018-05-03T04:46:56.747Z,1316
2018-05-03T04:48:07.053Z,1348
2018-05-03T04:49:17.182Z,1276
2018-05-03T04:50:27.307Z,1208
2018-05-03T04:51:37.556Z,1132
2018-05-03T04:52:47.705Z,1136
2018-05-03T04:53:57.862Z,1120
2018-05-03T04:55:07.732Z,1180
2018-05-03T04:56:17.880Z,1308
2018-05-03T04:57:27.871Z,1480
2018-05-03T04:58:37.780Z,1620
2018-05-03T04:59:47.993Z,1676
2018-05-03T05:00:57.931Z,1708
2018-05-03T05:02:08.055Z,1820
2018-05-03T05:03:18.262Z,1892
2018-05-03T05:04:28.456Z,1908
2018-05-03T05:05:38.623Z,2004
2018-05-03T05:06:48.515Z,2084
2018-05-03T05:07:58.658Z,2132
2018-05-03T05:09:08.878Z,2284
2018-05-03T05:10:19.072Z,2424
2018-05-03T05:11:29.231Z,2668
2018-05-03T05:12:39.480Z,2836
2018-05-03T05:13:49.615Z,2920
2018-05-03T05:14:59.559Z,3004
2018-05-03T05:16:09.690Z,2920
2018-05-03T05:17:19.827Z,2792
2018-05-03T05:18:29.984Z,2724
2018-05-03T05:19:40.289Z,2672
2018-05-03T05:20:50.429Z,2596
2018-05-03T05:22:00.355Z,2584
2018-05-03T05:23:10.243Z,2588
2018-05-03T05:24:20.581Z,2636
2018-05-03T05:25:30.727Z,2668
2018-05-03T05:26:40.880Z,2612
2018-05-03T05:27:50.993Z,2528
2018-05-03T05:29:01.133Z,2448
2018-05-03T05:30:11.379Z,2372
2018-05-03T05:31:21.614Z,2296
2018-05-03T05:32:31.792Z,2312
2018-05-03T05:33:41.993Z,2384
2018-05-03T05:34:52.224Z,2500
2018-05-03T05:36:02.442Z,2604
2018-05-03T05:37:12.576Z,2604
2018-05-03T05:38:22.707Z,2572
2018-05-03T05:39:32.695Z,2680
2018-05-03T05:40:42.876Z,2772
2018-05-03T05:41:52.899Z,2900
2018-05-03T05:43:03.202Z,2988
2018-05-03T05:44:13.544Z,2996
2018-05-03T05:45:23.809Z,3100
2018-05-03T05:46:34.020Z,3264
2018-05-03T05:47:43.901Z,3444
2018-05-03T05:48:54.028Z,3572
2018-05-03T05:50:04.178Z,3892
2018-05-03T05:51:14.836Z,4184
2018-05-03T05:52:25.060Z,4384
2018-05-03T05:53:35.317Z,4556
2018-05-03T05:54:45.523Z,4512
2018-05-03T05:55:55.717Z,4372
2018-05-03T05:57:05.865Z,4336
2018-05-03T05:58:16.123Z,4364
2018-05-03T05:59:27.374Z,4536
2018-05-03T06:00:37.610Z,4860
2018-05-03T06:01:47.826Z,5008
2018-05-03T06:02:58.005Z,4976
2018-05-03T06:04:08.235Z,4708
2018-05-03T06:05:18.495Z,4448
2018-05-03T06:06:28.664Z,4352
2018-05-03T06:07:38.992Z,4308
2018-05-03T06:08:49.216Z,4296
2018-05-03T06:09:59.402Z,4084
2018-05-03T06:11:09.563Z,4000
2018-05-03T06:12:19.453Z,4020
2018-05-03T06:13:29.679Z,4192
2018-05-03T06:14:39.583Z,4384
2018-05-03T06:15:49.729Z,4520
2018-05-03T06:16:59.897Z,4656
2018-05-03T06:18:09.816Z,4824
2018-05-03T06:19:19.944Z,5168
2018-05-03T06:20:30.094Z,5640
2018-05-03T06:21:39.986Z,6212
2018-05-03T06:22:50.116Z,6532
2018-05-03T06:24:00.268Z,6540
2018-05-03T06:25:10.126Z,6348
2018-05-03T06:26:20.260Z,6084
2018-05-03T06:27:30.395Z,5916
2018-05-03T06:28:40.642Z,6176
2018-05-03T06:29:50.780Z,6564
2018-05-03T06:31:00.907Z,7012
2018-05-03T06:32:11.146Z,7436
2018-05-03T06:33:21.296Z,7804
2018-05-03T06:34:31.181Z,8120
2018-05-03T06:35:41.346Z,8256
2018-05-03T06:36:51.528Z,8376
2018-05-03T06:38:01.756Z,8604
2018-05-03T06:39:11.729Z,8644
2018-05-03T06:40:21.871Z,8588
2018-05-03T06:41:32.002Z,8580
2018-05-03T06:42:42.119Z,8604
2018-05-03T06:43:52.271Z,8956
2018-05-03T06:45:02.439Z,9408
2018-05-03T06:46:12.586Z,9240
2018-05-03T06:47:22.732Z,8968
2018-05-03T06:48:32.866Z,8416
2018-05-03T06:49:42.465Z,8480
2018-05-03T06:50:52.621Z,9248
2018-05-03T06:52:02.498Z,10284
2018-05-03T06:53:12.714Z,10512
2018-05-03T06:54:22.974Z,10624
2018-05-03T06:55:33.165Z,11092
2018-05-03T06:56:43.233Z,10968
2018-05-03T06:57:53.399Z,10260
2018-05-03T06:59:03.297Z,9636
2018-05-03T07:00:13.429Z,8972
2018-05-03T07:01:23.550Z,8572
2018-05-03T07:02:33.693Z,8416
2018-05-03T07:03:43.850Z,8392
2018-05-03T07:04:54.016Z,8140
2018-05-03T07:06:04.191Z,7824
2018-05-03T07:07:14.091Z,7568
2018-05-03T07:08:24.255Z,7256
2018-05-03T07:09:34.391Z,7752
2018-05-03T07:10:44.540Z,8212
2018-05-03T07:11:54.764Z,8588
2018-05-03T07:13:04.951Z,8984
2018-05-03T07:14:15.061Z,9316
2018-05-03T07:15:25.189Z,9736
2018-05-03T07:16:35.309Z,10212
2018-05-03T07:17:45.513Z,10880
2018-05-03T07:18:56.656Z,11664
2018-05-03T07:20:06.886Z,12080
2018-05-03T07:21:17.126Z,12292
2018-05-03T07:22:27.343Z,12564
2018-05-03T07:23:37.214Z,12148
2018-05-03T07:24:48.086Z,11432
2018-05-03T07:25:58.341Z,10820
2018-05-03T07:27:08.229Z,10576
2018-05-03T07:28:18.368Z,10440
2018-05-03T07:29:28.816Z,10392
2018-05-03T07:30:39.074Z,10508
2018-05-03T07:31:49.204Z,10624
2018-05-03T07:32:59.045Z,10748
2018-05-03T07:34:09.168Z,10700
2018-05-03T07:35:19.318Z,10640
2018-05-03T07:36:29.483Z,10592
2018-05-03T07:37:39.649Z,10616
2018-05-03T07:38:49.776Z,10640
2018-05-03T07:39:59.658Z,10716
2018-05-03T07:41:09.955Z,10796
2018-05-03T07:42:20.137Z,10884
2018-05-03T07:43:30.009Z,10956
2018-05-03T07:44:40.132Z,11088
2018-05-03T07:45:50.323Z,11124
2018-05-03T07:47:00.354Z,11252
2018-05-03T07:48:10.244Z,11360
2018-05-03T07:49:20.123Z,11700
2018-05-03T07:50:29.752Z,12128
2018-05-03T07:51:39.937Z,12596
2018-05-03T07:52:50.189Z,13164
2018-05-03T07:53:59.451Z,13780
2018-05-03T07:55:09.620Z,14576
2018-05-03T07:56:19.853Z,14644
2018-05-03T07:57:30.173Z,15464
2018-05-03T07:58:39.812Z,19520
2018-05-03T07:59:50.099Z,20896
2018-05-03T08:01:00.223Z,20704
2018-05-03T08:02:10.377Z,19744
2018-05-03T08:03:20.008Z,18240
2018-05-03T08:04:30.133Z,17632
2018-05-03T08:05:40.267Z,18336
2018-05-03T08:06:50.450Z,17344
2018-05-03T08:08:00.587Z,16448
2018-05-03T08:09:10.758Z,15080
2018-05-03T08:10:20.642Z,14928
2018-05-03T08:11:30.890Z,14436
2018-05-03T08:12:41.335Z,14448
2018-05-03T08:13:51.487Z,14724
2018-05-03T08:15:01.627Z,14892
2018-05-03T08:16:11.754Z,16096
2018-05-03T08:17:21.880Z,17248
2018-05-03T08:18:32.138Z,18496
2018-05-03T08:19:42.313Z,19936
2018-05-03T08:20:52.456Z,21472
2018-05-03T08:22:02.716Z,23040
2018-05-03T08:23:12.906Z,22976
2018-05-03T08:24:23.117Z,21504
2018-05-03T08:25:33.280Z,21408
2018-05-03T08:26:43.154Z,21408
2018-05-03T08:27:53.297Z,21920
2018-05-03T08:29:03.426Z,21728
2018-05-03T08:30:13.591Z,22112
2018-05-03T08:31:23.752Z,21952
2018-05-03T08:32:33.905Z,21120
2018-05-03T08:33:44.056Z,20768
2018-05-03T08:34:54.203Z,20000
2018-05-03T08:36:04.444Z,19712
2018-05-03T08:37:14.621Z,18752
2018-05-03T08:38:24.510Z,18848
2018-05-03T08:39:34.667Z,21088
2018-05-03T08:40:44.879Z,19520
2018-05-03T08:41:55.037Z,19264
2018-05-03T08:43:05.193Z,18912
2018-05-03T08:44:15.339Z,18112
2018-05-03T08:45:25.468Z,17824
2018-05-03T08:46:35.626Z,17856
2018-05-03T08:47:45.782Z,17152
2018-05-03T08:48:55.960Z,16896
2018-05-03T08:50:06.222Z,16512
2018-05-03T08:51:16.367Z,16128
2018-05-03T08:52:26.247Z,15584
2018-05-03T08:53:36.399Z,15328
2018-05-03T08:54:46.544Z,14720
2018-05-03T08:55:56.953Z,14084
2018-05-03T08:57:06.952Z,13792
2018-05-03T08:58:17.146Z,13680
2018-05-03T08:59:27.047Z,13452
2018-05-03T09:00:37.191Z,13308
2018-05-03T09:01:47.717Z,13132
2018-05-03T09:02:58.175Z,13116
2018-05-03T09:04:08.330Z,13212
2018-05-03T09:05:18.546Z,13164
2018-05-03T09:06:28.425Z,13180
2018-05-03T09:07:38.586Z,13292
2018-05-03T09:08:48.979Z,13212
2018-05-03T09:09:59.118Z,13104
2018-05-03T09:11:09.247Z,13052
2018-05-03T09:12:19.477Z,13088
2018-05-03T09:13:29.654Z,13192
2018-05-03T09:14:39.300Z,13156
2018-05-03T09:15:49.523Z,12816
2018-05-03T09:16:59.415Z,12488
2018-05-03T09:18:09.653Z,12424
2018-05-03T09:19:19.801Z,12580
2018-05-03T09:20:29.720Z,13064
2018-05-03T09:21:39.859Z,13300
2018-05-03T09:22:50.042Z,13620
2018-05-03T09:24:00.214Z,13712
2018-05-03T09:25:10.465Z,13820
2018-05-03T09:26:20.398Z,13916
2018-05-03T09:27:30.549Z,14120
2018-05-03T09:28:40.683Z,14264
2018-05-03T09:29:50.905Z,14292
2018-05-03T09:31:01.039Z,14752
2018-05-03T09:32:11.178Z,15136
2018-05-03T09:33:21.062Z,15232
2018-05-03T09:34:30.688Z,15168
2018-05-03T09:35:40.863Z,15200
2018-05-03T09:36:50.748Z,15136
2018-05-03T09:38:00.876Z,14912
2018-05-03T09:39:10.736Z,14592
2018-05-03T09:40:20.632Z,14244
2018-05-03T09:41:30.775Z,14120
2018-05-03T09:42:40.929Z,13956
2018-05-03T09:43:51.105Z,13704
2018-05-03T09:45:01.246Z,13608
2018-05-03T09:46:11.454Z,13228
2018-05-03T09:47:21.594Z,13488
2018-05-03T09:48:31.728Z,13936
2018-05-03T09:49:42.126Z,14244
2018-05-03T09:50:52.020Z,14328
2018-05-03T09:52:02.185Z,15040
2018-05-03T09:53:12.428Z,15456
2018-05-03T09:54:22.594Z,15776
2018-05-03T09:55:32.771Z,15680
2018-05-03T09:56:42.959Z,15328
2018-05-03T09:57:53.153Z,15104
2018-05-03T09:59:03.507Z,14848
2018-05-03T10:00:13.394Z,14560
2018-05-03T10:01:23.527Z,14132
2018-05-03T10:02:33.663Z,13800
2018-05-03T10:03:43.812Z,13652
2018-05-03T10:04:54.327Z,13636
2018-05-03T10:06:04.277Z,13620
2018-05-03T10:07:14.554Z,13676
2018-05-03T10:08:24.479Z,13812
2018-05-03T10:09:34.382Z,13988
2018-05-03T10:10:44.728Z,14592
2018-05-03T10:11:54.878Z,14944
2018-05-03T10:13:05.077Z,15328
2018-05-03T10:14:15.017Z,15936
2018-05-03T10:15:25.167Z,16608
2018-05-03T10:16:35.362Z,17472
2018-05-03T10:17:45.510Z,18944
2018-05-03T10:18:55.300Z,20512
2018-05-03T10:20:05.003Z,21696
2018-05-03T10:21:15.134Z,22784
2018-05-03T10:22:25.076Z,25024
2018-05-03T10:23:35.019Z,26080
2018-05-03T10:24:45.176Z,30112
2018-05-03T10:25:55.312Z,34720
2018-05-03T10:27:05.486Z,41568
2018-05-03T10:28:15.655Z,68416
2018-05-03T10:29:25.791Z,47072
2018-05-03T10:30:35.958Z,104096
2018-05-03T10:31:46.137Z,82048
2018-05-03T10:32:56.429Z,88512
2018-05-03T10:34:06.612Z,96736
2018-05-03T10:35:16.523Z,103648
2018-05-03T10:36:26.995Z,108288
2018-05-03T10:37:37.387Z,105536
2018-05-03T10:38:47.543Z,97600
2018-05-03T10:39:57.697Z,98016
2018-05-03T10:41:07.846Z,95552
2018-05-03T10:42:17.665Z,88288
2018-05-03T10:43:28.025Z,81664
2018-05-03T10:44:38.827Z,88512
2018-05-03T10:45:49.403Z,28096
2018-05-03T10:46:59.606Z,96288
2018-05-03T10:48:12.294Z,54336
2018-05-03T10:49:23.729Z,34208
2018-05-03T10:50:33.870Z,95584
2018-05-03T10:51:44.096Z,97472
2018-05-03T10:52:54.066Z,39904
2018-05-03T10:54:04.217Z,97632
2018-05-03T10:55:14.251Z,99520
2018-05-03T10:56:24.418Z,23680
2018-05-03T10:57:34.904Z,107840
2018-05-03T10:58:45.206Z,113888
2018-05-03T10:59:55.399Z,92448
2018-05-03T11:01:05.561Z,29728
2018-05-03T11:02:15.718Z,110048
2018-05-03T11:03:25.872Z,90592
2018-05-03T11:04:36.073Z,35840
2018-05-03T11:05:46.357Z,43680
2018-05-03T11:06:56.546Z,26912
2018-05-03T11:08:06.728Z,26720
2018-05-03T11:09:16.891Z,28160
2018-05-03T11:10:27.058Z,25120
2018-05-03T11:11:37.237Z,22432
2018-05-03T11:12:47.487Z,61024
2018-05-03T11:13:57.687Z,25376
2018-05-03T11:15:07.945Z,90080
2018-05-03T11:16:18.105Z,118912
2018-05-03T11:17:28.324Z,125696
2018-05-03T11:18:38.475Z,107040
2018-05-03T11:19:48.739Z,96448
2018-05-03T11:20:58.914Z,95328
2018-05-03T11:22:08.811Z,88608
2018-05-03T11:24:32.067Z,26496
2018-05-03T11:25:42.278Z,27968
2018-05-03T11:26:52.722Z,85440
2018-05-03T11:28:02.914Z,21536
2018-05-03T11:29:13.057Z,21184
2018-05-03T11:30:23.218Z,17888
2018-05-03T11:31:33.730Z,21600
2018-05-03T11:32:44.012Z,102496
2018-05-03T11:33:53.902Z,88928
2018-05-03T11:35:04.080Z,82304
2018-05-03T11:36:15.244Z,34720
2018-05-03T11:37:25.458Z,24608
2018-05-03T11:38:35.624Z,87296
2018-05-03T11:39:45.791Z,29664
2018-05-03T11:40:55.967Z,90848
2018-05-03T11:42:05.861Z,67968
2018-05-03T11:43:16.113Z,80352
2018-05-03T11:44:26.081Z,57600
2018-05-03T11:45:39.538Z,64640
2018-05-03T11:46:49.709Z,99712
2018-05-03T11:47:59.990Z,46208
2018-05-03T11:49:09.958Z,22368
2018-05-03T11:50:20.114Z,92128
2018-05-03T11:51:30.264Z,32192
2018-05-03T11:52:40.504Z,26560
2018-05-03T11:53:50.702Z,24448
2018-05-03T11:55:00.852Z,19968
2018-05-03T11:56:11.018Z,20032
2018-05-03T11:57:21.197Z,95232
2018-05-03T11:58:31.123Z,85984
2018-05-03T11:59:41.294Z,88512
2018-05-03T12:00:51.437Z,28512
2018-05-03T12:02:01.643Z,35136
2018-05-03T12:03:11.865Z,20192
2018-05-03T12:04:22.026Z,23328
2018-05-03T12:05:32.277Z,22464
2018-05-03T12:06:42.245Z,21632
2018-05-03T12:07:52.395Z,37056
2018-05-03T12:09:02.561Z,22272
2018-05-03T12:10:12.448Z,73600
2018-05-03T12:11:22.615Z,78016
2018-05-03T12:12:32.801Z,18112
2018-05-03T12:13:42.972Z,18336
2018-05-03T12:14:53.136Z,23616
2018-05-03T12:16:03.059Z,27744
2018-05-03T12:17:13.059Z,69376
2018-05-03T12:18:23.208Z,24448
2018-05-03T12:19:33.456Z,58336
2018-05-03T12:20:43.665Z,106400
2018-05-03T12:21:53.877Z,100256
2018-05-03T12:23:03.661Z,81248
2018-05-03T12:24:13.891Z,79488
2018-05-03T12:25:23.932Z,92128
2018-05-03T12:26:35.297Z,100160
2018-05-03T12:27:45.538Z,91616
2018-05-03T12:28:55.450Z,91104
2018-05-03T12:30:05.615Z,100640
2018-05-03T12:31:15.765Z,100096
2018-05-03T12:32:29.336Z,68576
2018-05-03T12:33:40.731Z,78784
2018-05-03T12:34:52.506Z,31904
2018-05-03T12:36:03.393Z,51392
2018-05-03T12:37:13.587Z,20896
2018-05-03T12:38:23.800Z,16672
2018-05-03T12:39:33.688Z,15840
2018-05-03T12:40:43.852Z,16064
2018-05-03T12:41:54.060Z,17120
2018-05-03T12:43:04.055Z,19456
2018-05-03T12:44:13.936Z,20832
2018-05-03T12:45:24.097Z,21248
2018-05-03T12:46:34.243Z,21408
2018-05-03T12:47:44.419Z,22656
2018-05-03T12:48:54.612Z,30880
2018-05-03T12:50:04.764Z,33664
2018-05-03T12:51:14.935Z,77792
2018-05-03T12:52:25.109Z,84544
2018-05-03T12:53:35.305Z,100384
2018-05-03T12:54:45.252Z,92320
2018-05-03T12:55:55.392Z,73664
2018-05-03T12:57:05.581Z,31552
2018-05-03T12:58:15.775Z,62624
2018-05-03T12:59:25.933Z,43360
2018-05-03T13:00:36.149Z,76640
2018-05-03T13:01:47.433Z,22272
2018-05-03T13:02:57.358Z,23584
2018-05-03T13:04:07.528Z,27040
2018-05-03T13:05:17.696Z,32000
2018-05-03T13:06:27.884Z,33280
2018-05-03T13:07:38.054Z,25696
2018-05-03T13:08:47.942Z,23296
2018-05-03T13:09:57.873Z,22560
2018-05-03T13:11:08.261Z,22144
2018-05-03T13:12:18.829Z,20832
2018-05-03T13:13:29.042Z,21280
2018-05-03T13:14:39.217Z,34496
2018-05-03T13:15:49.559Z,22816
2018-05-03T13:16:59.486Z,28192
2018-05-03T13:18:09.637Z,33952
2018-05-03T13:19:19.810Z,79872
2018-05-03T13:20:29.580Z,83712
2018-05-03T13:21:39.729Z,82208
2018-05-03T13:22:49.902Z,79392
2018-05-03T13:24:00.075Z,69568
2018-05-03T13:25:10.350Z,62016
2018-05-03T13:26:20.573Z,67776
2018-05-03T13:27:30.767Z,80224
2018-05-03T13:28:40.718Z,52928
2018-05-03T13:29:50.880Z,50048
2018-05-03T13:31:01.111Z,63968
2018-05-03T13:32:12.251Z,72224
2018-05-03T13:33:22.486Z,69472
2018-05-03T13:34:32.564Z,69344
2018-05-03T13:35:43.755Z,72416
2018-05-03T13:36:53.952Z,75680
2018-05-03T13:38:08.055Z,78240
2018-05-03T13:39:19.690Z,76000
2018-05-03T13:40:29.612Z,66080
2018-05-03T13:41:39.793Z,58848
2018-05-03T13:42:50.935Z,66176
2018-05-03T13:45:25.702Z,64512
2018-05-03T13:46:35.873Z,66368
2018-05-03T13:47:46.273Z,77024
2018-05-03T13:48:56.453Z,71872
2018-05-03T13:50:06.624Z,56960
2018-05-03T13:51:16.780Z,55904
2018-05-03T13:52:26.943Z,60192
2018-05-03T13:53:37.193Z,61600
2018-05-03T13:54:47.368Z,67680
2018-05-03T13:55:57.558Z,70336
2018-05-03T13:57:07.744Z,68640
2018-05-03T13:58:17.640Z,70528
2018-05-03T13:59:27.701Z,70688
2018-05-03T14:00:37.886Z,68192
2018-05-03T14:01:48.141Z,71424
2018-05-03T14:02:58.359Z,73312
2018-05-03T14:04:08.534Z,64512
2018-05-03T14:05:18.421Z,54720
2018-05-03T14:06:28.731Z,53664
2018-05-03T14:07:39.076Z,60864
2018-05-03T14:08:49.264Z,66592
2018-05-03T14:09:59.443Z,65088
2018-05-03T14:11:09.411Z,60960
2018-05-03T14:12:19.617Z,60960
2018-05-03T14:13:29.832Z,63360
2018-05-03T14:14:40.127Z,61760
2018-05-03T14:15:50.454Z,53824
2018-05-03T14:17:00.277Z,49184
2018-05-03T14:18:10.523Z,50528
2018-05-03T14:19:20.647Z,58752
2018-05-03T14:20:30.957Z,63840
2018-05-03T14:22:57.474Z,47200
2018-05-03T14:24:07.514Z,53888
2018-05-03T14:25:17.438Z,59712
2018-05-03T14:26:27.654Z,60224
2018-05-03T14:27:37.993Z,59360
2018-05-03T14:28:48.171Z,56096
2018-05-03T14:29:58.082Z,56192
2018-05-03T14:31:07.965Z,60224
2018-05-03T14:32:18.195Z,61664
2018-05-03T14:33:28.153Z,53728
2018-05-03T14:34:37.856Z,48192
2018-05-03T14:35:48.036Z,57760
2018-05-03T14:36:58.222Z,63392
2018-05-03T14:38:08.453Z,57824
2018-05-03T14:39:18.432Z,53664
2018-05-03T14:40:28.602Z,49984
2018-05-03T14:41:39.755Z,51072
2018-05-03T14:42:49.949Z,60928
2018-05-03T14:44:00.133Z,57824
2018-05-03T14:45:10.046Z,44704
2018-05-03T14:46:19.967Z,45184
2018-05-03T14:47:29.954Z,55744
2018-05-03T14:48:40.139Z,53824
2018-05-03T14:49:50.291Z,44992
2018-05-03T14:51:00.550Z,48224
2018-05-03T14:52:10.719Z,58272
2018-05-03T14:53:20.868Z,55168
2018-05-03T14:54:30.805Z,48160
2018-05-03T14:55:40.785Z,52608
2018-05-03T14:56:50.779Z,59104
2018-05-03T14:58:00.935Z,56960
2018-05-03T14:59:11.086Z,47776
2018-05-03T15:00:21.282Z,43840
2018-05-03T15:01:31.507Z,50816
2018-05-03T15:02:41.683Z,55904
2018-05-03T15:03:51.876Z,46720
2018-05-03T15:05:02.080Z,36448
2018-05-03T15:06:12.240Z,43616
2018-05-03T15:07:22.407Z,54240
2018-05-03T15:08:32.657Z,50784
2018-05-03T15:09:42.840Z,39488
2018-05-03T15:10:53.001Z,39552
2018-05-03T15:12:03.226Z,44640
2018-05-03T15:13:13.439Z,39200
2018-05-03T15:14:23.647Z,35776
2018-05-03T15:15:33.797Z,37952
2018-05-03T15:16:43.983Z,45024
2018-05-03T15:17:54.171Z,48288
2018-05-03T15:19:04.346Z,46400
2018-05-03T15:20:14.580Z,49728
2018-05-03T15:21:24.579Z,47328
2018-05-03T15:22:34.498Z,40224
2018-05-03T15:23:44.655Z,29056
2018-05-03T15:24:54.568Z,13392
2018-05-03T15:26:05.766Z,9644
2018-05-03T15:27:15.960Z,8816
2018-05-03T15:28:25.853Z,8260
2018-05-03T15:29:36.031Z,7892
2018-05-03T15:30:45.982Z,7628
2018-05-03T15:31:55.933Z,7416
2018-05-03T15:33:05.853Z,7136
2018-05-03T15:34:15.752Z,6848
2018-05-03T15:35:25.928Z,6656
2018-05-03T15:36:35.853Z,6528
2018-05-03T15:37:45.791Z,6404
2018-05-03T15:38:56.100Z,6292
2018-05-03T15:40:06.276Z,6208
2018-05-03T15:41:16.438Z,6136
2018-05-03T15:42:26.776Z,6068
2018-05-03T15:43:37.056Z,6020
2018-05-03T15:44:47.220Z,5968